الصفحة الرئيسية
METAR-TAF:

METAR-TAF

مطار :

Hayden, كولورادو, الولايات المتحدة

دائرة عرض: 40-29N, خط طول: 107-13W, ارتفاع: 2012 متر

مراقبة الطقس الحالي

تاريخ ووقت الإصدار 3ساعات و 47 دقيقة قبل الساعة 11:56UTC
ريح 12 عقدة من الشرق/الجنوب الشرقي
درجة الحرارة -13°درجة مئوية
الرطوبة 72%
ضغط 1031 hPa
الرؤية: 16.1 كم
سماء صافية

METAR: KHDN 141156Z AUTO 11012KT 10SM CLR M13/M17 A3046 RMK AO2 SLP390 T11331172 11111 21133 58001 FZRANO

زمن: 08:43 (15:43 UTC)

توقعات

تاريخ ووقت الإصدار 4ساعات و 23 دقيقة قبل الساعة 11:20UTC
التوقعات صالحة من14 الساعة 12 UTC إلى 15 الساعة 12 UTC
ريح 12 عقدة من الشرق
الرؤية: 10 كم
سماء صافية
من 14 الساعة 2000 UTC
ريح 3 عقدةمن اتجاهات متغيرة
الرؤية: 10 كم
سماء صافية
من 15 الساعة 1000 UTC
ريح 5 عقدة من الشرق
الرؤية: 10 كم
غيوم مفككة على ارتفاع 20000 قدم

TAF: KHDN 141120Z 1412/1512 10012KT P6SM SKC FM142000 VRB03KT P6SM SKC FM151000 10005KT P6SM BKN200

أرصاد الطقس والتوقعات من أكثر من 4000 مطار (تقارير الطقس للمطار METAR والتنبؤ بالطقس بالمطارTAF).

المحطات المتاحة هي النقط الصفراء والحمراء على الخريطة.

حرك المؤشر فوق النقطة لمعرفة اسم المحطة.

ثم انقر لمعرفة أرصاد وتوقعات الطقس.

لتغيير الخارطة: اضغط على الأزرار الخضراء مع رمز الصليب الأسود للتكبير. على الزر الأخضر مع شرطة للتصغير، أو على الأسهم الخضراء للخرائط المجاورة.


METAR-TAF: